Croley, Kentucky
Current Conditions -  °F | °C
As of 8:35 AM on Friday 28 Nov 2014 (Local Time) from KUCY Reporting Station
Clear Clear  
Wind Chill: 19°   Ceiling: Unl
Heat Index: 28°   Visibility: 10mi
Dew Point: 25°   Wind: 10mph
Humidity: 86%   Direction: 160°SSE
Pressure: 30.37"   Gusts: NA
Location:  36.6807°N, 88.9572°W
Report Text: KUCY 281435Z AUTO 16009KT 10SM CLR M02/M04 A3037 RMK
Loading
Personal Weather Stations






























Interactive Weather Map New forecast layout! Learn more

10-Day Weather Forecast

Advertisements
Track Severe Weather on mobile